sensor_id;sensor_type;location;lat;lon;timestamp;P1;durP1;ratioP1;P2;durP2;ratioP2
70183;SDS011;57554;51.546;6.776;2023-04-25T00:00:03;15.50;;;4.95;;
70183;SDS011;57554;51.546;6.776;2023-04-25T00:07:05;15.07;;;4.65;;
70183;SDS011;57554;51.546;6.776;2023-04-25T00:13:14;15.75;;;5.00;;
70183;SDS011;57554;51.546;6.776;2023-04-25T00:16:07;21.38;;;5.22;;
70183;SDS011;57554;51.546;6.776;2023-04-25T00:32:37;14.10;;;4.88;;
70183;SDS011;57554;51.546;6.776;2023-04-25T00:35:35;21.60;;;5.82;;
70183;SDS011;57554;51.546;6.776;2023-04-25T00:38:21;16.70;;;5.80;;
70183;SDS011;57554;51.546;6.776;2023-04-25T00:41:05;18.40;;;5.40;;
70183;SDS011;57554;51.546;6.776;2023-04-25T04:02:40;22.98;;;6.38;;
70183;SDS011;57554;51.546;6.776;2023-04-25T10:11:26;7.30;;;1.33;;
70183;SDS011;57554;51.546;6.776;2023-04-25T15:30:05;7.50;;;1.23;;
70183;SDS011;57554;51.546;6.776;2023-04-25T15:39:20;7.32;;;1.20;;
70183;SDS011;57554;51.546;6.776;2023-04-25T15:47:00;5.22;;;1.10;;
70183;SDS011;57554;51.546;6.776;2023-04-25T15:49:34;3.33;;;0.82;;
70183;SDS011;57554;51.546;6.776;2023-04-25T15:54:42;4.55;;;1.13;;
70183;SDS011;57554;51.546;6.776;2023-04-25T15:57:36;4.55;;;0.80;;
70183;SDS011;57554;51.546;6.776;2023-04-25T17:08:21;5.20;;;1.20;;
70183;SDS011;57554;51.546;6.776;2023-04-25T17:19:59;5.57;;;1.20;;
70183;SDS011;57554;51.546;6.776;2023-04-25T17:44:22;6.75;;;1.17;;
70183;SDS011;57554;51.546;6.776;2023-04-25T17:49:41;6.78;;;1.35;;
70183;SDS011;57554;51.546;6.776;2023-04-25T17:52:13;6.22;;;1.30;;
70183;SDS011;57554;51.546;6.776;2023-04-25T17:55:03;6.20;;;1.17;;
70183;SDS011;57554;51.546;6.776;2023-04-25T17:57:57;6.97;;;1.30;;
70183;SDS011;57554;51.546;6.776;2023-04-25T18:07:26;7.47;;;1.30;;
70183;SDS011;57554;51.546;6.776;2023-04-25T18:12:44;8.68;;;1.65;;
70183;SDS011;57554;51.546;6.776;2023-04-25T18:21:35;7.72;;;1.80;;
70183;SDS011;57554;51.546;6.776;2023-04-25T18:24:19;5.82;;;1.40;;
70183;SDS011;57554;51.546;6.776;2023-04-25T18:26:54;5.85;;;1.33;;
70183;SDS011;57554;51.546;6.776;2023-04-25T18:29:29;5.60;;;1.30;;
70183;SDS011;57554;51.546;6.776;2023-04-25T18:32:02;8.50;;;2.05;;
70183;SDS011;57554;51.546;6.776;2023-04-25T18:34:41;8.35;;;1.58;;
70183;SDS011;57554;51.546;6.776;2023-04-25T18:37:36;7.55;;;1.80;;
70183;SDS011;57554;51.546;6.776;2023-04-25T18:40:04;6.15;;;1.40;;
70183;SDS011;57554;51.546;6.776;2023-04-25T18:42:39;6.78;;;1.10;;
70183;SDS011;57554;51.546;6.776;2023-04-25T18:45:12;5.15;;;1.23;;
70183;SDS011;57554;51.546;6.776;2023-04-25T18:48:13;6.53;;;1.40;;
70183;SDS011;57554;51.546;6.776;2023-04-25T18:57:27;5.43;;;1.58;;
70183;SDS011;57554;51.546;6.776;2023-04-25T19:07:11;6.78;;;1.40;;
70183;SDS011;57554;51.546;6.776;2023-04-25T19:32:53;5.18;;;1.20;;
70183;SDS011;57554;51.546;6.776;2023-04-25T19:35:25;7.80;;;1.52;;
70183;SDS011;57554;51.546;6.776;2023-04-25T19:38:02;7.75;;;1.52;;
70183;SDS011;57554;51.546;6.776;2023-04-25T21:05:25;7.55;;;1.85;;
70183;SDS011;57554;51.546;6.776;2023-04-25T21:14:58;11.25;;;2.42;;
70183;SDS011;57554;51.546;6.776;2023-04-25T21:23:28;6.57;;;1.80;;
70183;SDS011;57554;51.546;6.776;2023-04-25T21:25:55;9.23;;;2.67;;
70183;SDS011;57554;51.546;6.776;2023-04-25T21:28:26;5.80;;;1.65;;
70183;SDS011;57554;51.546;6.776;2023-04-25T21:31:17;6.03;;;1.70;;
70183;SDS011;57554;51.546;6.776;2023-04-25T21:33:56;8.00;;;2.25;;
70183;SDS011;57554;51.546;6.776;2023-04-25T21:36:31;8.77;;;2.25;;
70183;SDS011;57554;51.546;6.776;2023-04-25T21:41:40;6.47;;;2.10;;
70183;SDS011;57554;51.546;6.776;2023-04-25T21:44:07;10.20;;;2.60;;
70183;SDS011;57554;51.546;6.776;2023-04-25T21:46:33;7.05;;;2.28;;
70183;SDS011;57554;51.546;6.776;2023-04-25T21:49:05;10.00;;;2.47;;
70183;SDS011;57554;51.546;6.776;2023-04-25T21:51:34;10.50;;;2.92;;
70183;SDS011;57554;51.546;6.776;2023-04-25T21:54:03;9.60;;;2.40;;
70183;SDS011;57554;51.546;6.776;2023-04-25T21:56:53;10.60;;;2.58;;
70183;SDS011;57554;51.546;6.776;2023-04-25T22:03:21;9.40;;;2.58;;
70183;SDS011;57554;51.546;6.776;2023-04-25T22:05:50;9.13;;;2.60;;
70183;SDS011;57554;51.546;6.776;2023-04-25T22:08:31;10.02;;;2.67;;
70183;SDS011;57554;51.546;6.776;2023-04-25T22:31:34;12.18;;;2.22;;
70183;SDS011;57554;51.546;6.776;2023-04-25T22:34:10;10.23;;;2.30;;
70183;SDS011;57554;51.546;6.776;2023-04-25T22:36:51;12.25;;;2.60;;
70183;SDS011;57554;51.546;6.776;2023-04-25T22:39:38;12.02;;;3.13;;
70183;SDS011;57554;51.546;6.776;2023-04-25T22:44:43;12.63;;;2.95;;
70183;SDS011;57554;51.546;6.776;2023-04-25T22:47:11;8.88;;;2.80;;
70183;SDS011;57554;51.546;6.776;2023-04-25T22:49:41;6.88;;;2.53;;
70183;SDS011;57554;51.546;6.776;2023-04-25T22:52:11;7.72;;;2.40;;
70183;SDS011;57554;51.546;6.776;2023-04-25T22:54:38;10.90;;;3.10;;
70183;SDS011;57554;51.546;6.776;2023-04-25T22:57:17;9.93;;;2.80;;
70183;SDS011;57554;51.546;6.776;2023-04-25T22:59:47;10.25;;;2.70;;
70183;SDS011;57554;51.546;6.776;2023-04-25T23:02:14;12.43;;;3.03;;
70183;SDS011;57554;51.546;6.776;2023-04-25T23:04:50;11.77;;;3.03;;
70183;SDS011;57554;51.546;6.776;2023-04-25T23:07:22;8.48;;;2.72;;
70183;SDS011;57554;51.546;6.776;2023-04-25T23:09:57;8.38;;;2.60;;
70183;SDS011;57554;51.546;6.776;2023-04-25T23:12:29;10.10;;;3.08;;
70183;SDS011;57554;51.546;6.776;2023-04-25T23:14:59;10.55;;;2.80;;
70183;SDS011;57554;51.546;6.776;2023-04-25T23:17:35;13.07;;;2.70;;
70183;SDS011;57554;51.546;6.776;2023-04-25T23:20:07;11.05;;;3.70;;
70183;SDS011;57554;51.546;6.776;2023-04-25T23:22:40;6.72;;;2.70;;
70183;SDS011;57554;51.546;6.776;2023-04-25T23:25:07;9.93;;;2.90;;
70183;SDS011;57554;51.546;6.776;2023-04-25T23:27:36;8.88;;;3.17;;
70183;SDS011;57554;51.546;6.776;2023-04-25T23:30:05;11.90;;;3.58;;
70183;SDS011;57554;51.546;6.776;2023-04-25T23:32:33;10.70;;;3.28;;
70183;SDS011;57554;51.546;6.776;2023-04-25T23:35:03;11.07;;;3.42;;
70183;SDS011;57554;51.546;6.776;2023-04-25T23:37:36;14.13;;;3.60;;
70183;SDS011;57554;51.546;6.776;2023-04-25T23:40:08;9.32;;;2.80;;
70183;SDS011;57554;51.546;6.776;2023-04-25T23:42:44;11.70;;;3.13;;
70183;SDS011;57554;51.546;6.776;2023-04-25T23:45:13;9.13;;;3.22;;
70183;SDS011;57554;51.546;6.776;2023-04-25T23:47:43;11.80;;;3.50;;
70183;SDS011;57554;51.546;6.776;2023-04-25T23:50:14;13.07;;;3.53;;
70183;SDS011;57554;51.546;6.776;2023-04-25T23:52:43;9.57;;;3.70;;
70183;SDS011;57554;51.546;6.776;2023-04-25T23:55:14;7.22;;;2.97;;
70183;SDS011;57554;51.546;6.776;2023-04-25T23:57:45;7.15;;;3.13;;
